LOWSLDDU

Guest
Details From LOWS - Salzburg Maxglan
To LDDU - Dubrovnik
Flight Number -
Tags Generated
Created
Modified
Stats Distance 385 nm / 713 km
Max Altitude 0 ft / 0 m
Waypoints 3
Social Downloads 0
Likes 0
Share VATSIM

Download

Looking for another format? Having issues loading an existing format? Contact us
Advertisement - Login to hide

Notes

Generated

Route

LOWS R2155 LDDU

ID Type Via Altitude Latitude Longitude Leg Dist Tot Dist Heading (true) Name
O LOWS APT - 0 ft / 0 m 47.80472˚ 12.99717˚ - 0 nm - -
R2155 FIX - 0 ft / 0 m 42.56923˚ 18.24840˚ 384 nm 384 nm 143° / 147° -
O LDDU APT - 0 ft / 0 m 42.56986˚ 18.24681˚ 0 nm 384 nm 298° / 298° -

Altitude Profile

Advertisement - Login to hide

Weather


0- 5 10 15 20 25 30 35+ Temperature / ° C

Clouds and Precipitation
Forecast for 2017-12-16 18:00 UTC. Updated 2 hours ago

Ground ~20,000 ft ~40,000 ft Winds

LOWS

Details ICAO LOWS (SZG)
Name Salzburg Maxglan
Region Austria
Timezone Europe/Vienna (UTC+1.0)
Stats Elevation 1,411 ft / 430 m (AMSL)
Location 47.793333° 13.004333°
Runways 1
Magnetic Variation 3.428° E

METAR

LOWS 161620Z VRB03KT 9999 FEW010 SCT028 BKN040 01/01 Q1011 TEMPO 2000 SHSN BKN012

Decode

TAF

TAF LOWS 161115Z 1612/1712 15005KT 9999 -SN FEW030 BKN050 TX02/1613Z TNM01/1706Z TEMPO 1618/1712 29007KT 4000 SN FEW008 BKN025 PROB40 TEMPO 1618/1700 29010KT 1500 SCT008 BKN012

Decode

Departure Runways

ID Width Length Bearing (true) Bearing (mag) Surface Threshold Offset Overrun Length
16 148 ft / 45 m 9,024 ft / 2,751 m 157.08° 153.65° Concrete 656 ft / 200 m 0 ft / 0 m
34 148 ft / 45 m 9,024 ft / 2,751 m 337.09° 333.66° Concrete 787 ft / 240 m 0 ft / 0 m

LDDU

Details ICAO LDDU (DBV)
Name DUBROVNIK
Region Croatia
Timezone Europe/Zagreb (UTC+1.0)
Stats Elevation 527 ft / 161 m (AMSL)
Location 42.562840° 18.264499°
Runways 1
Magnetic Variation 4.101° E

METAR

LDDU 161630Z 07005KT CAVOK 10/08 Q1007 NOSIG

Decode

TAF

TAF TAF LDDU 161125Z 1612/1712 08006KT 9999 FEW040 TX13/1612Z TN08/1705Z TEMPO 1618/1712 RA PROB30 TEMPO 1618/1705 22015KT TSRA SCT015 FEW030CB BECMG 1709/1711 12010KT

Decode

Destination Runways

ID Width Length Bearing (true) Bearing (mag) Surface Threshold Offset Overrun Length
12 148 ft / 45 m 10,803 ft / 3,293 m 118.30° 114.20° Asphalt 488 ft / 149 m 100 ft / 30 m
30 148 ft / 45 m 10,803 ft / 3,293 m 298.33° 294.23° Asphalt 0 ft / 0 m 100 ft / 30 m

Approach Navaids

Runway Type Ident Frequency Range Bearing (true) Bearing (mag) Slope Elevation
12 Localiser IDU 110.10 MHz 25 nm / 46 km 118.21° 114.11° - 469 ft / 143 m (AMSL)
12 Glidescope IDU 110.10 MHz 25 nm / 46 km 118.21° 114.11° 3.00° 502 ft / 153 m (AMSL)

Popular Alternatives